createdAt,value
2022-11-11T00:01:03.202Z,11.47
2022-11-11T00:03:50.135Z,10.33
2022-11-11T00:06:38.285Z,11.33
2022-11-11T00:09:25.208Z,12.97
2022-11-11T00:12:13.214Z,11.07
2022-11-11T00:15:00.528Z,14.80
2022-11-11T00:18:06.650Z,11.07
2022-11-11T00:21:11.508Z,12.57
2022-11-11T00:24:17.243Z,11.10
2022-11-11T00:27:05.543Z,13.43
2022-11-11T00:29:53.056Z,17.33
2022-11-11T00:32:40.278Z,14.33
2022-11-11T00:35:46.332Z,34.27
2022-11-11T00:38:49.605Z,10.87
2022-11-11T00:41:37.303Z,11.20
2022-11-11T00:44:24.271Z,12.93
2022-11-11T00:47:28.838Z,8.77
2022-11-11T00:50:35.804Z,7.73
2022-11-11T00:53:27.496Z,12.60
2022-11-11T00:56:14.986Z,10.07
2022-11-11T00:59:02.114Z,11.43
2022-11-11T01:01:50.460Z,11.00
2022-11-11T01:04:37.565Z,7.67
2022-11-11T01:07:24.891Z,10.93
2022-11-11T01:10:13.942Z,7.60
2022-11-11T01:13:13.161Z,8.47
2022-11-11T01:16:02.406Z,7.63
2022-11-11T01:18:50.133Z,10.00
2022-11-11T01:21:37.639Z,16.40
2022-11-11T01:24:25.549Z,6.83
2022-11-11T01:27:14.520Z,10.43
2022-11-11T01:30:01.884Z,10.03
2022-11-11T01:32:48.981Z,13.43
2022-11-11T01:35:40.241Z,9.33
2022-11-11T01:38:27.650Z,6.33
2022-11-11T01:41:36.906Z,6.47
2022-11-11T01:44:47.759Z,7.47
2022-11-11T01:48:09.072Z,7.80
2022-11-11T01:50:58.943Z,7.03
2022-11-11T01:53:53.506Z,6.83
2022-11-11T01:56:42.503Z,6.47
2022-11-11T01:59:33.005Z,8.30
2022-11-11T02:02:27.950Z,6.27
2022-11-11T02:05:34.824Z,9.17
2022-11-11T02:08:36.782Z,6.60
2022-11-11T02:11:45.184Z,12.53
2022-11-11T02:14:41.362Z,11.03
2022-11-11T02:17:32.087Z,8.27
2022-11-11T02:20:23.676Z,9.20
2022-11-11T02:23:16.106Z,6.63
2022-11-11T02:26:07.136Z,6.70
2022-11-11T02:28:55.952Z,8.03
2022-11-11T02:31:43.478Z,10.67
2022-11-11T02:34:32.512Z,9.27
2022-11-11T02:37:22.600Z,10.73
2022-11-11T02:40:10.972Z,9.97
2022-11-11T02:42:59.992Z,8.80
2022-11-11T02:45:47.387Z,6.23
2022-11-11T02:48:35.078Z,5.03
2022-11-11T02:51:22.790Z,5.30
2022-11-11T02:54:09.927Z,5.67
2022-11-11T02:57:09.331Z,6.23
2022-11-11T02:59:59.795Z,13.60
2022-11-11T03:02:47.237Z,6.93
2022-11-11T03:05:35.485Z,6.37
2022-11-11T03:08:22.782Z,6.37
2022-11-11T03:11:10.305Z,5.73
2022-11-11T03:13:59.624Z,5.87
2022-11-11T03:17:07.326Z,8.00
2022-11-11T03:20:14.627Z,5.67
2022-11-11T03:23:02.905Z,7.73
2022-11-11T03:25:54.267Z,5.97
2022-11-11T03:28:45.529Z,5.50
2022-11-11T03:31:32.922Z,7.63
2022-11-11T03:34:22.025Z,5.80
2022-11-11T03:37:29.518Z,6.07
2022-11-11T03:40:16.995Z,6.23
2022-11-11T03:43:05.420Z,6.40
2022-11-11T03:45:53.806Z,7.53
2022-11-11T03:48:40.769Z,8.27
2022-11-11T03:51:29.454Z,8.70
2022-11-11T03:54:16.835Z,6.83
2022-11-11T03:57:21.271Z,8.43
2022-11-11T04:00:14.557Z,6.00
2022-11-11T04:03:25.893Z,7.33
2022-11-11T04:06:30.697Z,4.60
2022-11-11T04:09:37.065Z,5.60
2022-11-11T04:12:24.768Z,9.53
2022-11-11T04:15:29.280Z,5.60
2022-11-11T04:18:16.654Z,8.27
2022-11-11T04:21:21.187Z,5.43
2022-11-11T04:24:22.216Z,5.23
2022-11-11T04:27:12.508Z,10.87
2022-11-11T04:29:58.627Z,5.07
2022-11-11T04:32:47.703Z,7.00
2022-11-11T04:35:34.821Z,6.60
2022-11-11T04:38:39.474Z,4.80
2022-11-11T04:41:40.787Z,5.30
2022-11-11T04:44:52.797Z,12.23
2022-11-11T04:47:40.026Z,7.37
2022-11-11T04:50:29.290Z,18.07
2022-11-11T04:53:16.902Z,23.63
2022-11-11T04:56:21.363Z,10.40
2022-11-11T04:59:20.443Z,7.50
2022-11-11T05:02:26.660Z,32.87
2022-11-11T05:05:14.016Z,16.30
2022-11-11T05:08:18.607Z,14.33
2022-11-11T05:11:06.252Z,9.07
2022-11-11T05:14:11.087Z,7.03
2022-11-11T05:17:17.433Z,4.83
2022-11-11T05:20:24.237Z,7.10
2022-11-11T05:23:13.052Z,9.17
2022-11-11T05:26:02.499Z,7.47
2022-11-11T05:28:49.735Z,17.97
2022-11-11T05:31:37.105Z,8.40
2022-11-11T05:34:23.911Z,13.10
2022-11-11T05:37:12.636Z,9.20
2022-11-11T05:40:00.390Z,9.47
2022-11-11T05:42:53.348Z,10.80
2022-11-11T05:45:42.832Z,5.97
2022-11-11T05:48:31.307Z,9.30
2022-11-11T05:51:28.155Z,24.87
2022-11-11T05:54:17.531Z,6.30
2022-11-11T05:57:04.994Z,10.40
2022-11-11T05:59:53.070Z,8.70
2022-11-11T06:02:41.015Z,7.23
2022-11-11T06:05:28.492Z,8.97
2022-11-11T06:08:15.622Z,9.13
2022-11-11T06:11:04.119Z,18.47
2022-11-11T06:13:52.939Z,9.67
2022-11-11T06:16:40.023Z,5.80
2022-11-11T06:19:27.052Z,11.23
2022-11-11T06:22:14.227Z,11.27
2022-11-11T06:25:15.278Z,18.43
2022-11-11T06:28:03.838Z,8.83
2022-11-11T06:30:52.291Z,6.93
2022-11-11T06:33:40.393Z,6.47
2022-11-11T06:36:27.607Z,5.13
2022-11-11T06:39:14.963Z,13.30
2022-11-11T06:42:02.046Z,7.43
2022-11-11T06:44:50.798Z,10.97
2022-11-11T06:47:37.917Z,15.93
2022-11-11T06:50:25.077Z,20.53
2022-11-11T06:53:13.853Z,24.40
2022-11-11T06:56:02.139Z,18.30
2022-11-11T06:58:49.278Z,8.63
2022-11-11T07:01:37.778Z,10.37
2022-11-11T07:04:25.229Z,17.60
2022-11-11T07:07:12.419Z,9.40
2022-11-11T07:09:59.715Z,8.17
2022-11-11T07:12:47.387Z,8.63
2022-11-11T07:15:37.590Z,11.57
2022-11-11T07:18:26.540Z,8.07
2022-11-11T07:21:14.127Z,10.07
2022-11-11T07:24:01.437Z,9.07
2022-11-11T07:26:48.719Z,25.80
2022-11-11T07:29:35.805Z,11.83
2022-11-11T07:32:22.847Z,10.23
2022-11-11T07:35:11.583Z,11.27
2022-11-11T07:37:59.028Z,17.13
2022-11-11T07:40:46.415Z,12.43
2022-11-11T07:43:33.582Z,12.70
2022-11-11T07:46:20.769Z,10.07
2022-11-11T07:49:07.935Z,17.13
2022-11-11T07:51:56.808Z,34.73
2022-11-11T07:54:44.677Z,12.93
2022-11-11T07:57:31.814Z,9.50
2022-11-11T08:00:19.790Z,19.73
2022-11-11T08:03:08.789Z,17.13
2022-11-11T08:05:59.323Z,14.37
2022-11-11T08:08:48.340Z,25.40
2022-11-11T08:11:52.715Z,12.80
2022-11-11T08:14:41.093Z,19.47
2022-11-11T08:17:28.070Z,12.80
2022-11-11T08:20:15.749Z,10.40
2022-11-11T08:23:41.239Z,14.10
2022-11-11T08:26:13.356Z,11.43
2022-11-11T08:29:01.201Z,9.13
2022-11-11T08:31:48.599Z,13.87
2022-11-11T08:34:36.190Z,13.27
2022-11-11T08:37:24.527Z,13.50
2022-11-11T08:40:11.824Z,25.73
2022-11-11T08:43:00.930Z,13.50
2022-11-11T08:45:54.285Z,12.40
2022-11-11T08:48:41.610Z,14.40
2022-11-11T08:51:33.060Z,16.10
2022-11-11T08:54:24.670Z,19.97
2022-11-11T08:57:11.492Z,13.23
2022-11-11T08:59:59.799Z,12.47
2022-11-11T09:02:47.316Z,11.67
2022-11-11T09:08:46.228Z,14.47
2022-11-11T09:11:36.521Z,20.57
2022-11-11T09:14:24.070Z,15.80
2022-11-11T09:17:13.154Z,16.50
2022-11-11T09:19:59.995Z,15.20
2022-11-11T09:22:48.359Z,20.77
2022-11-11T09:25:35.458Z,19.80
2022-11-11T09:28:22.910Z,13.77
2022-11-11T09:34:20.901Z,13.83
2022-11-11T09:37:08.017Z,17.93
2022-11-11T09:39:56.164Z,31.77
2022-11-11T09:42:49.430Z,12.73
2022-11-11T09:45:45.635Z,17.00
2022-11-11T09:48:47.135Z,14.10
2022-11-11T09:51:50.179Z,11.27
2022-11-11T09:54:42.525Z,13.00
2022-11-11T09:57:38.124Z,11.13
2022-11-11T10:00:28.297Z,12.30
2022-11-11T10:03:20.273Z,13.60
2022-11-11T10:06:17.287Z,16.17
2022-11-11T10:09:20.134Z,18.83
2022-11-11T10:12:14.433Z,35.20
2022-11-11T10:15:01.715Z,16.17
2022-11-11T10:18:06.473Z,19.23
2022-11-11T10:20:57.102Z,15.17
2022-11-11T10:23:48.205Z,17.83
2022-11-11T10:26:39.499Z,8.67
2022-11-11T10:29:31.875Z,14.40
2022-11-11T10:32:25.178Z,8.43
2022-11-11T10:35:19.119Z,9.73
2022-11-11T10:38:22.009Z,7.77
2022-11-11T10:41:16.805Z,11.10
2022-11-11T10:44:21.451Z,7.43
2022-11-11T10:47:18.537Z,28.10
2022-11-11T10:50:13.416Z,31.20
2022-11-11T10:53:13.725Z,19.17
2022-11-11T10:56:07.070Z,17.17
2022-11-11T10:59:00.482Z,14.50
2022-11-11T11:01:57.199Z,7.97
2022-11-11T11:04:47.909Z,10.83
2022-11-11T11:07:42.386Z,12.50
2022-11-11T11:10:36.639Z,11.87
2022-11-11T11:13:31.754Z,12.53
2022-11-11T11:16:23.584Z,7.53
2022-11-11T11:19:20.095Z,6.67
2022-11-11T11:22:07.698Z,23.83
2022-11-11T11:25:11.771Z,9.33
2022-11-11T11:28:09.652Z,9.33
2022-11-11T11:31:01.161Z,11.03
2022-11-11T11:33:54.027Z,8.57
2022-11-11T11:36:43.028Z,10.97
2022-11-11T11:39:35.413Z,8.10
2022-11-11T11:42:34.442Z,7.77
2022-11-11T11:45:24.686Z,6.60
2022-11-11T11:48:41.252Z,8.33
2022-11-11T11:51:37.376Z,14.73
2022-11-11T11:54:48.131Z,16.80
2022-11-11T11:57:49.337Z,20.27
2022-11-11T12:00:43.586Z,19.77
2022-11-11T12:03:57.065Z,10.37
2022-11-11T12:06:55.114Z,19.23
2022-11-11T12:09:54.688Z,13.83
2022-11-11T12:12:46.984Z,16.87
2022-11-11T12:15:40.607Z,16.53
2022-11-11T12:18:51.534Z,7.75
2022-11-11T12:21:46.242Z,12.77
2022-11-11T12:24:46.705Z,10.38
2022-11-11T12:27:40.326Z,7.72
2022-11-11T12:30:29.286Z,10.40
2022-11-11T12:33:40.773Z,8.65
2022-11-11T12:36:36.307Z,13.13
2022-11-11T12:39:45.718Z,9.85
2022-11-11T12:42:45.171Z,10.18
2022-11-11T12:45:41.707Z,6.78
2022-11-11T12:48:41.585Z,9.40
2022-11-11T12:51:48.361Z,11.20
2022-11-11T12:54:45.207Z,7.03
2022-11-11T12:57:47.693Z,5.97
2022-11-11T13:00:39.448Z,6.47
2022-11-11T13:03:48.781Z,9.48
2022-11-11T13:06:50.409Z,6.63
2022-11-11T13:09:58.534Z,7.83
2022-11-11T13:12:58.988Z,8.87
2022-11-11T13:15:49.031Z,12.00
2022-11-11T13:18:44.514Z,8.17
2022-11-11T13:21:37.412Z,9.53
2022-11-11T13:24:25.941Z,9.53
2022-11-11T13:27:19.544Z,21.17
2022-11-11T13:30:51.980Z,6.93
2022-11-11T13:33:43.255Z,8.23
2022-11-11T13:36:40.906Z,8.87
2022-11-11T13:39:34.636Z,11.23
2022-11-11T13:42:31.195Z,6.50
2022-11-11T13:45:27.738Z,9.63
2022-11-11T13:48:26.940Z,9.53
2022-11-11T13:51:25.538Z,8.40
2022-11-11T13:54:28.702Z,9.47
2022-11-11T13:57:23.023Z,7.53
2022-11-11T14:00:28.900Z,7.83
2022-11-11T14:03:38.781Z,7.97
2022-11-11T14:06:53.716Z,10.97
2022-11-11T14:10:00.402Z,6.50
2022-11-11T14:12:49.357Z,7.50
2022-11-11T14:15:48.243Z,6.23
2022-11-11T14:18:43.710Z,9.90
2022-11-11T14:21:49.900Z,9.77
2022-11-11T14:24:42.034Z,6.53
2022-11-11T14:27:32.145Z,10.17
2022-11-11T14:30:49.416Z,9.33
2022-11-11T14:33:47.165Z,13.00
2022-11-11T14:36:43.577Z,8.87
2022-11-11T14:39:39.302Z,6.37
2022-11-11T14:42:46.561Z,12.33
2022-11-11T14:46:18.932Z,7.87
2022-11-11T14:49:06.478Z,8.13
2022-11-11T14:51:59.017Z,10.60
2022-11-11T14:54:56.336Z,7.03
2022-11-11T14:57:48.088Z,10.50
2022-11-11T15:00:46.084Z,12.80
2022-11-11T15:03:39.007Z,6.80
2022-11-11T15:06:34.860Z,6.30
2022-11-11T15:09:45.754Z,7.03
2022-11-11T15:12:47.168Z,6.80
2022-11-11T15:15:43.371Z,5.73
2022-11-11T15:18:55.359Z,7.30
2022-11-11T15:21:53.705Z,18.40
2022-11-11T15:24:51.957Z,11.13
2022-11-11T15:27:48.911Z,16.97
2022-11-11T15:30:54.739Z,16.50
2022-11-11T15:33:52.379Z,11.97
2022-11-11T15:36:54.521Z,19.40
2022-11-11T15:39:43.978Z,14.47
2022-11-11T15:42:33.978Z,14.30
2022-11-11T15:45:26.157Z,15.53
2022-11-11T15:48:21.204Z,16.27
2022-11-11T15:51:19.197Z,15.63
2022-11-11T15:54:22.476Z,15.77
2022-11-11T15:57:31.394Z,27.27
2022-11-11T16:00:33.714Z,31.07
2022-11-11T16:03:24.321Z,27.03
2022-11-11T16:06:13.535Z,16.80
2022-11-11T16:09:01.002Z,19.57
2022-11-11T16:11:48.044Z,20.00
2022-11-11T16:14:40.934Z,11.67
2022-11-11T16:17:34.898Z,20.77
2022-11-11T16:20:35.465Z,27.83
2022-11-11T16:23:25.896Z,17.03
2022-11-11T16:26:17.040Z,24.73
2022-11-11T16:29:04.691Z,20.33
2022-11-11T16:31:53.495Z,15.20
2022-11-11T16:34:46.439Z,13.20
2022-11-11T16:37:56.643Z,24.33
2022-11-11T16:40:45.611Z,20.57
2022-11-11T16:43:34.765Z,20.00
2022-11-11T16:46:49.191Z,18.70
2022-11-11T16:49:41.342Z,30.83
2022-11-11T16:52:47.152Z,20.20
2022-11-11T16:55:37.741Z,19.80
2022-11-11T16:58:29.024Z,15.20
2022-11-11T17:01:16.249Z,12.73
2022-11-11T17:04:04.452Z,13.50
2022-11-11T17:06:56.908Z,18.90
2022-11-11T17:09:46.681Z,16.77
2022-11-11T17:12:47.290Z,16.60
2022-11-11T17:15:34.712Z,13.77
2022-11-11T17:18:24.233Z,36.03
2022-11-11T17:21:17.519Z,32.70
2022-11-11T17:24:05.731Z,29.07
2022-11-11T17:27:00.163Z,18.37
2022-11-11T17:29:48.271Z,21.30
2022-11-11T17:32:37.683Z,20.77
2022-11-11T17:35:24.710Z,15.37
2022-11-11T17:38:12.010Z,20.00
2022-11-11T17:40:59.553Z,16.10
2022-11-11T17:43:51.644Z,22.53
2022-11-11T17:46:39.359Z,26.90
2022-11-11T17:49:55.149Z,22.77
2022-11-11T17:52:36.005Z,34.07
2022-11-11T17:55:25.654Z,27.67
2022-11-11T17:58:14.036Z,18.17
2022-11-11T18:01:08.908Z,21.00
2022-11-11T18:03:59.904Z,15.70
2022-11-11T18:06:47.117Z,37.30
2022-11-11T18:09:35.112Z,27.23
2022-11-11T18:12:26.312Z,27.37
2022-11-11T18:15:15.147Z,23.33
2022-11-11T18:18:04.698Z,22.23
2022-11-11T18:20:51.989Z,38.27
2022-11-11T18:23:40.478Z,19.30
2022-11-11T18:26:28.076Z,16.00
2022-11-11T18:29:15.600Z,15.67
2022-11-11T18:32:02.751Z,20.63
2022-11-11T18:34:51.297Z,21.90
2022-11-11T18:37:43.902Z,21.73
2022-11-11T18:40:33.489Z,22.07
2022-11-11T18:43:22.776Z,28.23
2022-11-11T18:46:12.774Z,21.93
2022-11-11T18:49:05.067Z,17.53
2022-11-11T18:51:56.458Z,21.43
2022-11-11T18:54:44.566Z,29.07
2022-11-11T18:57:34.449Z,19.93
2022-11-11T19:00:26.999Z,19.67
2022-11-11T19:03:21.499Z,25.07
2022-11-11T19:06:13.156Z,28.80
2022-11-11T19:09:14.144Z,23.83
2022-11-11T19:12:02.789Z,21.20
2022-11-11T19:14:51.119Z,42.37
2022-11-11T19:17:38.737Z,37.57
2022-11-11T19:20:26.470Z,31.53
2022-11-11T19:23:13.684Z,38.57
2022-11-11T19:26:02.439Z,30.20
2022-11-11T19:28:54.368Z,30.73
2022-11-11T19:31:41.373Z,33.97
2022-11-11T19:34:29.783Z,22.17
2022-11-11T19:37:22.129Z,29.43
2022-11-11T19:40:14.337Z,39.10
2022-11-11T19:43:03.453Z,42.10
2022-11-11T19:45:50.896Z,24.43
2022-11-11T19:48:40.101Z,25.20
2022-11-11T19:51:30.273Z,25.67
2022-11-11T19:54:17.715Z,21.13
2022-11-11T19:57:05.128Z,23.83
2022-11-11T19:59:53.695Z,21.53
2022-11-11T20:02:40.876Z,22.00
2022-11-11T20:05:27.941Z,41.33
2022-11-11T20:08:15.594Z,26.53
2022-11-11T20:11:09.496Z,31.70
2022-11-11T20:13:58.023Z,23.00
2022-11-11T20:16:46.755Z,24.50
2022-11-11T20:19:36.906Z,34.67
2022-11-11T20:22:29.028Z,51.57
2022-11-11T20:25:16.336Z,40.33
2022-11-11T20:28:03.439Z,52.87
2022-11-11T20:30:50.967Z,78.73
2022-11-11T20:33:39.368Z,38.97
2022-11-11T20:36:28.879Z,25.43
2022-11-11T20:39:16.368Z,31.80
2022-11-11T20:42:05.818Z,36.43
2022-11-11T20:44:53.416Z,30.63
2022-11-11T20:47:40.826Z,36.33
2022-11-11T20:50:29.753Z,26.33
2022-11-11T20:53:16.980Z,23.90
2022-11-11T20:56:04.964Z,27.50
2022-11-11T20:58:52.385Z,21.97
2022-11-11T21:01:41.684Z,26.47
2022-11-11T21:04:29.885Z,28.23
2022-11-11T21:07:20.534Z,23.80
2022-11-11T21:10:08.342Z,43.23
2022-11-11T21:12:57.065Z,23.63
2022-11-11T21:15:44.424Z,28.23
2022-11-11T21:18:31.737Z,19.03
2022-11-11T21:21:20.627Z,21.00
2022-11-11T21:24:10.643Z,25.77
2022-11-11T21:26:58.043Z,22.77
2022-11-11T21:29:45.274Z,34.23
2022-11-11T21:32:36.146Z,26.97
2022-11-11T21:35:25.001Z,30.00
2022-11-11T21:38:12.228Z,21.17
2022-11-11T21:41:05.405Z,21.73
2022-11-11T21:43:52.657Z,20.43
2022-11-11T21:46:40.763Z,20.87
2022-11-11T21:49:28.184Z,26.93
2022-11-11T21:52:19.819Z,28.83
2022-11-11T21:55:08.070Z,31.20
2022-11-11T21:57:56.863Z,21.17
2022-11-11T22:00:43.753Z,22.03
2022-11-11T22:03:32.226Z,19.30
2022-11-11T22:06:20.428Z,16.67
2022-11-11T22:09:08.033Z,20.67
2022-11-11T22:11:55.299Z,19.43
2022-11-11T22:14:43.863Z,23.70
2022-11-11T22:17:34.032Z,19.80
2022-11-11T22:20:21.141Z,29.57
2022-11-11T22:23:08.873Z,21.47
2022-11-11T22:26:00.854Z,23.63
2022-11-11T22:28:53.844Z,20.53
2022-11-11T22:31:44.622Z,19.43
2022-11-11T22:34:32.121Z,17.00
2022-11-11T22:37:21.598Z,22.60
2022-11-11T22:40:10.799Z,24.33
2022-11-11T22:42:58.653Z,19.03
2022-11-11T22:45:56.200Z,14.77
2022-11-11T22:48:50.379Z,14.57
2022-11-11T22:51:37.551Z,18.17
2022-11-11T22:54:24.781Z,34.53
2022-11-11T22:57:11.951Z,22.13
2022-11-11T22:59:59.054Z,29.00
2022-11-11T23:02:46.204Z,32.80
2022-11-11T23:05:34.744Z,27.10
2022-11-11T23:08:21.698Z,54.57
2022-11-11T23:11:12.329Z,30.73
2022-11-11T23:14:02.599Z,41.03
2022-11-11T23:16:49.993Z,33.30
2022-11-11T23:19:39.007Z,27.27
2022-11-11T23:22:28.740Z,39.93
2022-11-11T23:25:16.823Z,24.30
2022-11-11T23:28:05.601Z,14.90
2022-11-11T23:30:52.699Z,39.77
2022-11-11T23:33:41.929Z,23.80
2022-11-11T23:36:31.780Z,30.30
2022-11-11T23:39:20.332Z,20.97
2022-11-11T23:42:08.681Z,21.27
2022-11-11T23:44:55.867Z,27.47
2022-11-11T23:47:42.952Z,21.73
2022-11-11T23:50:30.256Z,28.70
2022-11-11T23:53:17.815Z,18.97
2022-11-11T23:56:06.804Z,21.33
2022-11-11T23:58:54.539Z,30.93
